Pagina principale
METAR-TAF:

METAR-TAF

Aeroporti :

Biserta, Tunisia

latitudine: 37-15N, longitudine: 009-48E, altezza: 5 m

Osservazione

Il bollettino è stato emesso 51 minuti fa, alle 17:00 UTC
Vento 10 kt da est/nord-est
Temperature 22°C
Umidità 50%
Pressione 1015 hPa
Visibilità 10 km o più
Poco nuvoloso ad un'altezza di 2000 ft

METAR: DTTB 311700Z 06010KT 9999 FEW020 22/11 Q1015

Ora: 18:51 (17:51 UTC)

Previsione

Il bollettino è stato emesso 2 ore e 51 minuti fa, alle 15:00 UTC
Previsione valida dal 31 alle 16 UTC al 01 alle 01 UTC
Vento 12 kt da nord/nord-est
Visibilità 10 km o più
Nubi sparse ad un'altezza di 2000 ft
Evoluzione graduale
dal 31 alle 16 UTC al 31 alle 18 UTC
Vento 10 kt da est

TAF: DTTB 311500Z 3116/0101 03012KT 9999 SCT020 BECMG 3116/3118 09010KT

Osservazioni e previsioni meteorologiche di più di 4000 aeroporti (messaggi METAR e TAF).

Le stazioni disponibili sono rappresentate dai dischi gialli e rossi sulla carta.

Puntare il mouse per vedere il nome della stazione.

Clicca sopra per visualizzare le osservazioni e previsioni meteorologiche.

Per cambiare la mappa : fare clic sui pulsanti verdi con una croce nera per ingrandire, il pulsante verde con un trattino per diminuire, o sulla freccia verde per le mappe adiacenti.


METAR-TAF: